createdAt,value
2019-01-21T00:00:39.067Z,0.20
2019-01-21T00:01:46.506Z,0.20
2019-01-21T00:02:51.363Z,0.20
2019-01-21T00:03:56.527Z,0.20
2019-01-21T00:05:01.431Z,0.20
2019-01-21T00:06:06.337Z,0.20
2019-01-21T00:07:11.146Z,0.20
2019-01-21T00:08:16.005Z,0.20
2019-01-21T00:09:20.913Z,0.10
2019-01-21T00:10:25.711Z,0.10
2019-01-21T00:11:30.884Z,0.10
2019-01-21T00:12:35.939Z,0.10
2019-01-21T00:13:40.860Z,0.10
2019-01-21T00:14:45.819Z,0.10
2019-01-21T00:15:50.722Z,0.10
2019-01-21T00:16:55.663Z,0.10
2019-01-21T00:18:00.508Z,0.10
2019-01-21T00:19:05.486Z,0.10
2019-01-21T00:20:10.513Z,0.10
2019-01-21T00:21:15.429Z,0.10
2019-01-21T00:22:20.336Z,0.10
2019-01-21T00:23:25.318Z,0.10
2019-01-21T00:24:30.273Z,0.10
2019-01-21T00:25:35.313Z,0.10
2019-01-21T00:26:40.385Z,0.10
2019-01-21T00:27:45.295Z,0.10
2019-01-21T00:28:50.891Z,0.10
2019-01-21T00:30:06.382Z,0.10
2019-01-21T00:31:11.778Z,0.10
2019-01-21T00:32:21.334Z,0.10
2019-01-21T00:33:26.367Z,0.10
2019-01-21T00:34:34.285Z,0.10
2019-01-21T00:35:45.820Z,0.10
2019-01-21T00:36:50.739Z,0.00
2019-01-21T00:37:56.371Z,0.00
2019-01-21T00:39:01.512Z,0.10
2019-01-21T00:40:07.273Z,0.00
2019-01-21T00:41:12.442Z,0.00
2019-01-21T00:42:17.328Z,0.00
2019-01-21T00:43:22.262Z,0.00
2019-01-21T00:44:27.389Z,0.00
2019-01-21T00:45:32.196Z,0.00
2019-01-21T00:46:37.155Z,0.00
2019-01-21T00:47:42.723Z,0.00
2019-01-21T00:48:47.612Z,-0.10
2019-01-21T00:49:52.511Z,-0.10
2019-01-21T00:50:57.365Z,-0.10
2019-01-21T00:52:03.887Z,-0.10
2019-01-21T00:53:08.674Z,-0.20
2019-01-21T00:54:13.595Z,-0.20
2019-01-21T00:55:20.017Z,-0.20
2019-01-21T00:56:24.896Z,-0.20
2019-01-21T00:57:31.767Z,-0.20
2019-01-21T00:58:36.615Z,-0.20
2019-01-21T00:59:41.487Z,-0.30
2019-01-21T01:00:49.174Z,-0.30
2019-01-21T01:01:54.020Z,-0.30
2019-01-21T01:02:59.011Z,-0.30
2019-01-21T01:04:04.034Z,-0.30
2019-01-21T01:05:10.458Z,-0.30
2019-01-21T01:06:16.156Z,-0.40
2019-01-21T01:07:21.091Z,-0.40
2019-01-21T01:08:25.914Z,-0.40
2019-01-21T01:09:30.829Z,-0.40
2019-01-21T01:10:35.730Z,-0.50
2019-01-21T01:11:40.668Z,-0.50
2019-01-21T01:12:45.622Z,-0.50
2019-01-21T01:13:50.746Z,-0.50
2019-01-21T01:14:55.586Z,-0.50
2019-01-21T01:16:00.566Z,-0.50
2019-01-21T01:17:05.727Z,-0.50
2019-01-21T01:18:10.741Z,-0.50
2019-01-21T01:19:15.661Z,-0.50
2019-01-21T01:20:21.924Z,-0.60
2019-01-21T01:21:28.411Z,-0.60
2019-01-21T01:22:38.726Z,-0.60
2019-01-21T01:23:46.777Z,-0.50
2019-01-21T01:24:52.083Z,-0.50
2019-01-21T01:25:57.318Z,-0.50
2019-01-21T01:27:02.260Z,-0.50
2019-01-21T01:28:07.216Z,-0.50
2019-01-21T01:29:13.474Z,-0.50
2019-01-21T01:30:18.909Z,-0.50
2019-01-21T01:31:24.034Z,-0.50
2019-01-21T01:32:29.161Z,-0.50
2019-01-21T01:33:42.782Z,-0.50
2019-01-21T01:34:47.633Z,-0.60
2019-01-21T01:35:55.008Z,-0.60
2019-01-21T01:37:00.195Z,-0.60
2019-01-21T01:38:05.116Z,-0.60
2019-01-21T01:39:09.874Z,-0.60
2019-01-21T01:40:16.987Z,-0.60
2019-01-21T01:41:22.009Z,-0.50
2019-01-21T01:42:26.845Z,-0.50
2019-01-21T01:43:31.721Z,-0.50
2019-01-21T01:44:37.908Z,-0.50
2019-01-21T01:45:43.047Z,-0.50
2019-01-21T01:46:47.891Z,-0.50
2019-01-21T01:47:56.669Z,-0.50
2019-01-21T01:49:01.560Z,-0.50
2019-01-21T01:50:07.159Z,-0.50
2019-01-21T01:51:11.998Z,-0.50
2019-01-21T01:52:16.852Z,-0.50
2019-01-21T01:53:21.765Z,-0.50
2019-01-21T01:54:26.644Z,-0.50
2019-01-21T01:55:33.714Z,-0.40
2019-01-21T01:56:39.209Z,-0.60
2019-01-21T01:57:44.394Z,-0.60
2019-01-21T01:58:49.293Z,-0.60
2019-01-21T01:59:54.182Z,-0.70
2019-01-21T02:00:58.997Z,-0.60
2019-01-21T02:02:03.945Z,-0.70
2019-01-21T02:03:08.946Z,-0.70
2019-01-21T02:04:14.219Z,-0.70
2019-01-21T02:05:19.073Z,-0.70
2019-01-21T02:06:23.935Z,-0.70
2019-01-21T02:07:28.799Z,-0.70
2019-01-21T02:08:33.862Z,-0.80
2019-01-21T02:09:38.779Z,-0.80
2019-01-21T02:10:44.117Z,-0.80
2019-01-21T02:11:48.920Z,-0.80
2019-01-21T02:12:53.948Z,-0.80
2019-01-21T02:13:58.756Z,-0.90
2019-01-21T02:15:03.686Z,-0.80
2019-01-21T02:16:08.469Z,-0.90
2019-01-21T02:17:14.066Z,-0.90
2019-01-21T02:18:18.954Z,-1.00
2019-01-21T02:19:27.707Z,-1.00
2019-01-21T02:20:32.856Z,-1.00
2019-01-21T02:21:39.516Z,-1.00
2019-01-21T02:22:46.554Z,-1.00
2019-01-21T02:23:56.614Z,-1.00
2019-01-21T02:25:03.337Z,-1.10
2019-01-21T02:26:17.353Z,-1.10
2019-01-21T02:27:42.386Z,-1.10
2019-01-21T02:29:40.288Z,-1.10
2019-01-21T02:31:28.745Z,-1.10
2019-01-21T02:33:20.864Z,-1.10
2019-01-21T02:35:04.367Z,-1.20
2019-01-21T02:36:43.699Z,-1.20
2019-01-21T02:38:18.820Z,-1.20
2019-01-21T02:39:51.923Z,-1.20
2019-01-21T02:41:21.851Z,-1.30
2019-01-21T02:42:35.768Z,-1.30
2019-01-21T02:43:57.098Z,-1.20
2019-01-21T02:45:44.780Z,-1.30
2019-01-21T02:47:18.393Z,-1.30
2019-01-21T02:48:41.752Z,-1.20
2019-01-21T02:50:22.891Z,-1.30
2019-01-21T02:52:00.726Z,-1.20
2019-01-21T02:53:42.595Z,-1.20
2019-01-21T02:55:31.260Z,-1.30
2019-01-21T02:56:56.777Z,-1.20
2019-01-21T02:58:17.250Z,-1.20
2019-01-21T02:59:55.946Z,-1.20
2019-01-21T03:01:30.128Z,-1.20
2019-01-21T03:03:14.009Z,-1.20
2019-01-21T03:04:54.568Z,-1.30
2019-01-21T03:06:54.196Z,-1.20
2019-01-21T03:08:31.610Z,-1.30
2019-01-21T03:10:10.628Z,-1.30
2019-01-21T03:11:57.849Z,-1.30
2019-01-21T03:13:28.700Z,-1.30
2019-01-21T03:15:13.611Z,-1.30
2019-01-21T03:16:54.876Z,-1.30
2019-01-21T03:18:39.964Z,-1.30
2019-01-21T03:20:28.043Z,-1.20
2019-01-21T03:22:28.944Z,-1.20
2019-01-21T03:24:23.753Z,-1.20
2019-01-21T03:25:54.321Z,-1.20
2019-01-21T03:27:29.864Z,-1.20
2019-01-21T03:29:24.477Z,-1.20
2019-01-21T03:30:58.014Z,-1.20
2019-01-21T03:32:46.592Z,-1.30
2019-01-21T03:34:26.228Z,-1.30
2019-01-21T03:36:01.618Z,-1.40
2019-01-21T03:37:41.764Z,-1.30
2019-01-21T03:39:26.707Z,-1.40
2019-01-21T03:41:06.415Z,-1.30
2019-01-21T03:42:49.545Z,-1.30
2019-01-21T03:44:29.805Z,-1.30
2019-01-21T03:45:56.154Z,-1.30
2019-01-21T03:47:42.778Z,-1.30
2019-01-21T03:49:03.212Z,-1.40
2019-01-21T03:50:30.664Z,-1.40
2019-01-21T03:52:24.060Z,-1.50
2019-01-21T03:53:47.916Z,-1.60
2019-01-21T03:55:01.086Z,-1.60
2019-01-21T03:56:29.018Z,-1.60
2019-01-21T03:58:23.775Z,-1.60
2019-01-21T03:59:50.058Z,-1.60
2019-01-21T04:01:31.965Z,-1.60
2019-01-21T04:03:17.848Z,-1.50
2019-01-21T04:05:25.086Z,-1.60
2019-01-21T04:06:58.398Z,-1.60
2019-01-21T04:08:29.126Z,-1.60
2019-01-21T04:10:04.251Z,-1.60
2019-01-21T04:11:31.002Z,-1.60
2019-01-21T04:12:50.771Z,-1.60
2019-01-21T04:14:42.475Z,-1.60
2019-01-21T04:16:04.717Z,-1.50
2019-01-21T04:17:41.703Z,-1.60
2019-01-21T04:19:12.322Z,-1.60
2019-01-21T04:21:15.890Z,-1.60
2019-01-21T04:23:02.103Z,-1.60
2019-01-21T04:25:08.818Z,-1.60
2019-01-21T04:26:39.037Z,-1.70
2019-01-21T04:28:13.650Z,-1.60
2019-01-21T04:30:16.940Z,-1.70
2019-01-21T04:31:55.962Z,-1.70
2019-01-21T04:33:39.589Z,-1.60
2019-01-21T04:35:19.418Z,-1.60
2019-01-21T04:36:59.322Z,-1.60
2019-01-21T04:38:25.037Z,-1.60
2019-01-21T04:40:03.601Z,-1.70
2019-01-21T04:41:55.865Z,-1.70
2019-01-21T04:43:28.926Z,-1.70
2019-01-21T04:44:55.195Z,-1.70
2019-01-21T04:46:29.584Z,-1.70
2019-01-21T04:48:18.680Z,-1.70
2019-01-21T04:49:47.635Z,-1.80
2019-01-21T04:51:34.968Z,-1.80
2019-01-21T04:53:44.606Z,-1.80
2019-01-21T04:55:25.581Z,-1.90
2019-01-21T04:56:53.689Z,-1.90
2019-01-21T04:58:28.160Z,-1.90
2019-01-21T05:00:25.650Z,-1.90
2019-01-21T05:02:03.199Z,-1.90
2019-01-21T05:03:50.271Z,-1.90
2019-01-21T05:05:41.942Z,-2.00
2019-01-21T05:07:19.328Z,-1.90
2019-01-21T05:08:59.219Z,-2.00
2019-01-21T05:10:31.036Z,-2.00
2019-01-21T05:12:26.075Z,-2.00
2019-01-21T05:14:11.859Z,-2.00
2019-01-21T05:15:44.741Z,-1.90
2019-01-21T05:17:27.008Z,-2.00
2019-01-21T05:19:02.354Z,-1.90
2019-01-21T05:20:46.361Z,-1.90
2019-01-21T05:22:21.181Z,-1.80
2019-01-21T05:24:10.151Z,-1.80
2019-01-21T05:26:00.858Z,-1.80
2019-01-21T05:27:41.214Z,-1.90
2019-01-21T05:29:45.112Z,-1.90
2019-01-21T05:31:27.224Z,-1.80
2019-01-21T05:32:56.931Z,-1.80
2019-01-21T05:34:38.548Z,-1.80
2019-01-21T05:36:05.759Z,-1.70
2019-01-21T05:37:41.052Z,-1.80
2019-01-21T05:39:16.679Z,-1.80
2019-01-21T05:40:54.329Z,-1.80
2019-01-21T05:42:28.313Z,-1.80
2019-01-21T05:44:07.247Z,-1.80
2019-01-21T05:46:20.027Z,-1.80
2019-01-21T05:47:36.230Z,-1.80
2019-01-21T05:48:53.240Z,-1.80
2019-01-21T05:50:12.290Z,-1.80
2019-01-21T05:51:29.796Z,-1.80
2019-01-21T05:52:46.363Z,-1.80
2019-01-21T05:54:02.511Z,-1.90
2019-01-21T05:55:18.711Z,-1.80
2019-01-21T05:56:35.145Z,-1.80
2019-01-21T05:57:51.339Z,-1.80
2019-01-21T05:59:08.160Z,-1.80
2019-01-21T06:00:24.950Z,-1.80
2019-01-21T06:01:40.968Z,-1.80
2019-01-21T06:02:57.089Z,-1.90
2019-01-21T06:04:13.242Z,-1.90
2019-01-21T06:05:29.610Z,-1.90
2019-01-21T06:06:45.686Z,-1.90
2019-01-21T06:08:01.605Z,-1.90
2019-01-21T06:09:19.747Z,-2.00
2019-01-21T06:10:36.574Z,-2.00
2019-01-21T06:14:08.668Z,-2.00
2019-01-21T06:15:29.905Z,-2.10
2019-01-21T06:17:04.921Z,-2.00
2019-01-21T06:18:10.128Z,-2.00
2019-01-21T06:19:29.377Z,-2.00
2019-01-21T06:20:45.838Z,-2.00
2019-01-21T06:22:05.626Z,-2.10
2019-01-21T06:23:26.067Z,-2.00
2019-01-21T06:24:39.614Z,-2.00
2019-01-21T06:25:59.717Z,-2.00
2019-01-21T06:27:18.523Z,-2.10
2019-01-21T06:28:34.942Z,-2.10
2019-01-21T06:29:51.708Z,-2.00
2019-01-21T06:31:21.790Z,-2.00
2019-01-21T06:34:00.647Z,-2.10
2019-01-21T06:35:19.146Z,-2.20
2019-01-21T06:36:40.688Z,-2.10
2019-01-21T06:37:58.332Z,-2.10
2019-01-21T06:39:17.799Z,-2.20
2019-01-21T06:40:58.197Z,-2.10
2019-01-21T06:41:53.590Z,-2.10
2019-01-21T06:43:09.527Z,-2.20
2019-01-21T06:44:25.861Z,-2.30
2019-01-21T06:45:44.805Z,-2.30
2019-01-21T06:47:01.163Z,-2.30
2019-01-21T06:48:17.398Z,-2.30
2019-01-21T06:49:33.522Z,-2.20
2019-01-21T06:50:50.220Z,-2.20
2019-01-21T06:52:06.190Z,-2.20
2019-01-21T06:53:22.482Z,-2.20
2019-01-21T06:54:38.711Z,-2.20
2019-01-21T06:56:01.098Z,-2.20
2019-01-21T06:57:16.992Z,-2.20
2019-01-21T06:58:34.797Z,-2.20
2019-01-21T06:59:53.141Z,-2.20
2019-01-21T07:01:09.484Z,-2.20
2019-01-21T07:03:45.201Z,-2.20
2019-01-21T07:05:01.550Z,-2.20
2019-01-21T07:06:17.901Z,-2.20
2019-01-21T07:07:36.384Z,-2.20
2019-01-21T07:08:56.438Z,-2.20
2019-01-21T07:10:13.106Z,-2.20
2019-01-21T07:11:31.659Z,-2.20
2019-01-21T07:12:52.018Z,-2.30
2019-01-21T07:14:14.060Z,-2.20
2019-01-21T07:15:31.087Z,-2.20
2019-01-21T07:16:52.455Z,-2.30
2019-01-21T07:18:12.200Z,-2.30
2019-01-21T07:19:28.718Z,-2.30
2019-01-21T07:21:33.954Z,-2.30
2019-01-21T07:22:34.123Z,-2.20
2019-01-21T07:23:50.144Z,-2.20
2019-01-21T07:25:06.299Z,-2.20
2019-01-21T07:26:24.114Z,-2.20
2019-01-21T07:27:44.942Z,-2.20
2019-01-21T07:29:27.906Z,-2.20
2019-01-21T07:33:17.791Z,-2.30
2019-01-21T07:34:45.205Z,-2.30
2019-01-21T07:36:03.416Z,-2.40
2019-01-21T07:37:43.970Z,-2.30
2019-01-21T07:39:02.655Z,-2.30
2019-01-21T07:40:22.846Z,-2.30
2019-01-21T07:41:39.148Z,-2.30
2019-01-21T07:43:34.953Z,-2.20
2019-01-21T07:44:41.412Z,-2.20
2019-01-21T07:45:58.000Z,-2.20
2019-01-21T07:47:14.337Z,-2.10
2019-01-21T07:48:58.573Z,-2.20
2019-01-21T07:50:38.092Z,-2.10
2019-01-21T07:51:44.668Z,-2.10
2019-01-21T07:53:04.590Z,-2.10
2019-01-21T07:54:21.028Z,-2.10
2019-01-21T07:55:39.279Z,-2.10
2019-01-21T07:56:58.842Z,-2.10
2019-01-21T07:58:17.892Z,-2.10
2019-01-21T07:59:35.211Z,-2.20
2019-01-21T08:00:53.905Z,-2.10
2019-01-21T08:02:13.111Z,-2.20
2019-01-21T08:03:29.592Z,-2.20
2019-01-21T08:05:09.718Z,-2.20
2019-01-21T08:06:12.106Z,-2.20
2019-01-21T08:07:32.360Z,-2.20
2019-01-21T08:08:47.958Z,-2.20
2019-01-21T08:10:05.721Z,-2.20
2019-01-21T08:11:23.562Z,-2.10
2019-01-21T08:12:45.432Z,-2.20
2019-01-21T08:14:42.993Z,-2.10
2019-01-21T08:16:28.312Z,-2.10
2019-01-21T08:17:37.189Z,-2.10
2019-01-21T08:18:54.353Z,-2.00
2019-01-21T08:20:40.085Z,-2.10
2019-01-21T08:22:35.262Z,-2.10
2019-01-21T08:24:16.384Z,-2.10
2019-01-21T08:26:19.109Z,-2.10
2019-01-21T08:28:09.634Z,-2.00
2019-01-21T08:29:52.427Z,-2.00
2019-01-21T08:31:36.983Z,-2.00
2019-01-21T08:33:16.814Z,-2.10
2019-01-21T08:35:08.181Z,-2.10
2019-01-21T08:36:50.804Z,-2.10
2019-01-21T08:38:34.298Z,-2.00
2019-01-21T08:40:11.236Z,-2.00
2019-01-21T08:41:49.462Z,-2.00
2019-01-21T08:43:51.840Z,-2.00
2019-01-21T08:45:52.647Z,-1.90
2019-01-21T08:47:40.788Z,-1.90
2019-01-21T08:50:23.277Z,-1.80
2019-01-21T08:50:28.265Z,-1.70
2019-01-21T08:51:47.129Z,-1.70
2019-01-21T08:53:06.018Z,-1.70
2019-01-21T08:54:22.339Z,-1.70
2019-01-21T08:55:40.596Z,-1.60
2019-01-21T08:56:57.214Z,-1.60
2019-01-21T08:59:56.325Z,-1.60
2019-01-21T09:01:29.388Z,-1.50
2019-01-21T09:02:48.212Z,-1.50
2019-01-21T09:04:06.767Z,-1.40
2019-01-21T09:05:22.703Z,-1.50
2019-01-21T09:06:38.711Z,-1.50
2019-01-21T09:07:54.939Z,-1.50
2019-01-21T09:09:11.371Z,-1.50
2019-01-21T09:10:27.757Z,-1.50
2019-01-21T09:11:43.938Z,-1.40
2019-01-21T09:13:00.071Z,-1.40
2019-01-21T09:14:22.771Z,-1.40
2019-01-21T09:15:38.798Z,-1.40
2019-01-21T09:17:00.106Z,-1.30
2019-01-21T09:18:16.415Z,-1.30
2019-01-21T09:19:37.206Z,-1.30
2019-01-21T09:20:52.344Z,-1.20
2019-01-21T09:22:09.148Z,-1.20
2019-01-21T09:23:25.379Z,-1.20
2019-01-21T09:24:44.648Z,-1.10
2019-01-21T09:26:19.192Z,-1.10
2019-01-21T09:27:23.411Z,-1.10
2019-01-21T09:28:40.187Z,-1.00
2019-01-21T09:29:56.658Z,-1.00
2019-01-21T09:31:31.789Z,-1.10
2019-01-21T09:34:44.326Z,-1.00
2019-01-21T09:36:21.773Z,-0.90
2019-01-21T09:37:39.354Z,-0.90
2019-01-21T09:38:56.196Z,-0.80
2019-01-21T09:40:12.604Z,-0.80
2019-01-21T09:41:29.900Z,-0.70
2019-01-21T09:42:46.759Z,-0.70
2019-01-21T09:44:04.018Z,-0.70
2019-01-21T09:45:23.239Z,-0.60
2019-01-21T09:47:05.214Z,-0.60
2019-01-21T09:48:28.182Z,-0.60
2019-01-21T09:53:04.152Z,-0.50
2019-01-21T09:55:57.740Z,-0.50
2019-01-21T09:57:16.996Z,-0.50
2019-01-21T09:58:34.477Z,-0.40
2019-01-21T09:59:51.011Z,-0.40
2019-01-21T10:01:08.281Z,-0.30
2019-01-21T10:02:27.486Z,-0.30
2019-01-21T10:03:46.256Z,-0.30
2019-01-21T10:05:02.252Z,-0.20
2019-01-21T10:06:21.147Z,-0.10
2019-01-21T10:07:41.136Z,-0.10
2019-01-21T10:09:01.800Z,-0.20
2019-01-21T10:10:18.249Z,-0.10
2019-01-21T10:11:36.074Z,-0.10
2019-01-21T10:12:55.018Z,-0.10
2019-01-21T10:14:14.217Z,-0.10
2019-01-21T10:15:30.391Z,0.00
2019-01-21T10:16:47.581Z,0.00
2019-01-21T10:18:06.481Z,0.00
2019-01-21T10:19:24.760Z,0.10
2019-01-21T10:20:40.992Z,0.10
2019-01-21T10:22:24.270Z,0.10
2019-01-21T10:23:40.929Z,0.10
2019-01-21T10:25:07.112Z,0.20
2019-01-21T10:26:43.650Z,0.30
2019-01-21T10:28:29.276Z,0.30
2019-01-21T10:30:26.447Z,0.30
2019-01-21T10:31:30.471Z,0.40
2019-01-21T10:32:48.161Z,0.40
2019-01-21T10:34:07.889Z,0.40
2019-01-21T10:35:24.344Z,0.40
2019-01-21T10:36:40.979Z,0.40
2019-01-21T10:37:57.410Z,0.40
2019-01-21T10:39:13.884Z,0.40
2019-01-21T10:40:32.908Z,0.40
2019-01-21T10:41:52.261Z,0.40
2019-01-21T10:43:08.308Z,0.50
2019-01-21T10:44:25.238Z,0.50
2019-01-21T10:45:43.095Z,0.60
2019-01-21T10:47:17.379Z,0.60
2019-01-21T10:48:25.462Z,0.60
2019-01-21T10:49:44.950Z,0.70
2019-01-21T10:51:01.324Z,0.70
2019-01-21T10:53:34.328Z,0.70
2019-01-21T10:55:17.168Z,0.70
2019-01-21T10:56:33.414Z,0.70
2019-01-21T10:57:54.611Z,0.70
2019-01-21T10:59:13.759Z,0.80
2019-01-21T11:00:32.268Z,0.70
2019-01-21T11:01:49.172Z,0.80
2019-01-21T11:03:46.804Z,0.80
2019-01-21T11:04:47.765Z,0.80
2019-01-21T11:06:06.232Z,0.90
2019-01-21T11:07:23.400Z,0.90
2019-01-21T11:10:41.084Z,1.00
2019-01-21T11:11:58.358Z,1.00
2019-01-21T11:13:36.523Z,1.00
2019-01-21T11:16:17.684Z,1.00
2019-01-21T11:17:38.439Z,1.10
2019-01-21T11:18:57.054Z,1.10
2019-01-21T11:20:41.188Z,1.10
2019-01-21T11:24:07.802Z,1.20
2019-01-21T11:25:25.828Z,1.20
2019-01-21T11:26:44.563Z,1.20
2019-01-21T11:28:01.654Z,1.20
2019-01-21T11:29:18.561Z,1.20
2019-01-21T11:30:39.326Z,1.30
2019-01-21T11:31:55.412Z,1.30
2019-01-21T11:33:11.574Z,1.40
2019-01-21T11:34:28.359Z,1.30
2019-01-21T11:35:50.663Z,1.30
2019-01-21T11:37:07.322Z,1.30
2019-01-21T11:38:23.465Z,1.40
2019-01-21T11:39:39.456Z,1.30
2019-01-21T11:40:55.705Z,1.40
2019-01-21T11:42:12.506Z,1.40
2019-01-21T11:43:29.330Z,1.50
2019-01-21T11:44:55.183Z,1.60
2019-01-21T11:46:16.069Z,1.60
2019-01-21T11:47:30.008Z,1.70
2019-01-21T11:48:56.183Z,1.70
2019-01-21T11:50:10.465Z,1.70
2019-01-21T11:52:04.859Z,1.60
2019-01-21T11:53:37.830Z,1.60
2019-01-21T11:54:55.186Z,1.50
2019-01-21T11:56:16.363Z,1.50
2019-01-21T11:59:43.117Z,1.60
2019-01-21T12:00:48.792Z,1.70
2019-01-21T12:02:05.781Z,1.70
2019-01-21T12:03:23.679Z,1.80
2019-01-21T12:04:40.350Z,1.80
2019-01-21T12:05:56.442Z,1.80
2019-01-21T12:07:17.844Z,1.80
2019-01-21T12:08:57.195Z,1.90
2019-01-21T12:10:01.372Z,2.00
2019-01-21T12:11:59.391Z,2.00
2019-01-21T12:13:32.047Z,2.20
2019-01-21T12:14:52.593Z,2.30
2019-01-21T12:16:12.747Z,2.40
2019-01-21T12:17:32.090Z,2.50
2019-01-21T12:18:48.640Z,2.70
2019-01-21T12:20:07.185Z,3.10
2019-01-21T12:21:23.616Z,3.50
2019-01-21T12:25:09.449Z,4.40
2019-01-21T12:26:46.388Z,5.10
2019-01-21T12:28:42.274Z,5.90
2019-01-21T12:30:28.258Z,6.40
2019-01-21T12:32:12.321Z,7.00
2019-01-21T12:34:09.761Z,7.50
2019-01-21T12:35:54.251Z,8.00
2019-01-21T12:37:30.026Z,8.50
2019-01-21T12:39:16.546Z,8.90
2019-01-21T12:41:21.575Z,9.00
2019-01-21T12:42:53.543Z,8.90
2019-01-21T12:44:39.198Z,9.30
2019-01-21T12:46:29.661Z,9.60
2019-01-21T12:47:52.000Z,9.90
2019-01-21T12:49:36.262Z,10.10
2019-01-21T12:51:29.368Z,10.50
2019-01-21T12:52:45.310Z,10.50
2019-01-21T12:54:26.200Z,10.40
2019-01-21T12:56:17.781Z,10.10
2019-01-21T12:58:37.291Z,9.60
2019-01-21T13:00:15.304Z,9.20
2019-01-21T13:02:05.368Z,8.50
2019-01-21T13:04:23.184Z,8.00
2019-01-21T13:05:48.572Z,7.50
2019-01-21T13:07:48.166Z,7.20
2019-01-21T13:09:17.560Z,7.00
2019-01-21T13:10:57.801Z,6.80
2019-01-21T13:12:20.632Z,6.40
2019-01-21T13:14:05.217Z,6.20
2019-01-21T13:15:56.550Z,6.00
2019-01-21T13:17:22.214Z,5.80
2019-01-21T13:19:12.687Z,5.60
2019-01-21T13:20:58.780Z,5.50
2019-01-21T13:22:29.067Z,5.40
2019-01-21T13:23:54.146Z,5.40
2019-01-21T13:25:27.503Z,5.20
2019-01-21T13:27:07.540Z,5.10
2019-01-21T13:28:57.757Z,5.00
2019-01-21T13:30:56.878Z,4.90
2019-01-21T13:32:25.300Z,4.80
2019-01-21T13:34:11.361Z,4.70
2019-01-21T13:35:51.716Z,4.60
2019-01-21T13:37:35.267Z,4.60
2019-01-21T13:39:29.465Z,4.60
2019-01-21T13:41:06.102Z,4.40
2019-01-21T13:42:46.035Z,4.20
2019-01-21T13:44:26.247Z,4.10
2019-01-21T13:46:04.320Z,4.10
2019-01-21T13:48:15.189Z,4.10
2019-01-21T13:49:45.947Z,4.00
2019-01-21T13:51:19.930Z,4.00
2019-01-21T13:53:16.116Z,3.90
2019-01-21T13:54:52.710Z,3.90
2019-01-21T13:56:22.225Z,3.90
2019-01-21T13:58:00.619Z,3.80
2019-01-21T13:59:49.059Z,3.80
2019-01-21T14:01:35.748Z,3.80
2019-01-21T14:03:06.542Z,3.80
2019-01-21T14:04:56.621Z,3.70
2019-01-21T14:06:44.732Z,3.70
2019-01-21T14:08:34.778Z,3.70
2019-01-21T14:10:12.077Z,3.70
2019-01-21T14:11:57.964Z,3.80
2019-01-21T14:13:28.031Z,3.80
2019-01-21T14:15:17.922Z,3.70
2019-01-21T14:17:10.427Z,3.70
2019-01-21T14:18:56.276Z,3.80
2019-01-21T14:20:43.665Z,3.60
2019-01-21T14:22:29.613Z,3.60
2019-01-21T14:24:24.088Z,3.70
2019-01-21T14:26:07.091Z,3.70
2019-01-21T14:27:46.200Z,3.60
2019-01-21T14:29:38.954Z,3.60
2019-01-21T14:31:11.372Z,3.60
2019-01-21T14:33:13.473Z,3.50
2019-01-21T14:34:38.883Z,3.50
2019-01-21T14:35:55.857Z,3.50
2019-01-21T14:37:47.297Z,3.50
2019-01-21T14:39:34.578Z,3.50
2019-01-21T14:41:08.621Z,3.60
2019-01-21T14:43:10.250Z,3.60
2019-01-21T14:45:20.680Z,3.60
2019-01-21T14:47:08.341Z,3.60
2019-01-21T14:48:48.443Z,3.50
2019-01-21T14:50:31.202Z,3.50
2019-01-21T14:54:45.474Z,3.40
2019-01-21T14:56:40.042Z,3.40
2019-01-21T14:57:58.097Z,3.30
2019-01-21T14:59:32.360Z,3.30
2019-01-21T15:01:22.299Z,3.30
2019-01-21T15:02:53.497Z,3.30
2019-01-21T15:04:57.187Z,3.20
2019-01-21T15:06:15.217Z,3.30
2019-01-21T15:07:56.849Z,3.20
2019-01-21T15:09:37.159Z,3.30
2019-01-21T15:11:13.651Z,3.20
2019-01-21T15:12:45.191Z,3.30
2019-01-21T15:14:15.872Z,3.30
2019-01-21T15:15:42.511Z,3.40
2019-01-21T15:16:59.911Z,3.40
2019-01-21T15:18:39.886Z,3.40
2019-01-21T15:20:25.067Z,3.30
2019-01-21T15:22:10.399Z,3.30
2019-01-21T15:24:23.376Z,3.40
2019-01-21T15:25:53.865Z,3.30
2019-01-21T15:27:44.770Z,3.30
2019-01-21T15:30:01.870Z,3.20
2019-01-21T15:32:07.117Z,3.30
2019-01-21T15:33:40.792Z,3.20
2019-01-21T15:35:23.456Z,3.20
2019-01-21T15:36:58.237Z,3.20
2019-01-21T15:38:35.325Z,3.20
2019-01-21T15:39:56.266Z,3.20
2019-01-21T15:42:10.214Z,3.10
2019-01-21T15:43:44.196Z,3.20
2019-01-21T15:45:14.610Z,3.10
2019-01-21T15:47:11.118Z,3.10
2019-01-21T15:48:41.894Z,3.10
2019-01-21T15:50:12.142Z,3.20
2019-01-21T15:51:54.320Z,3.20
2019-01-21T15:54:08.372Z,3.20
2019-01-21T15:55:55.669Z,3.20
2019-01-21T15:57:41.075Z,3.20
2019-01-21T15:59:21.759Z,3.10
2019-01-21T16:01:07.410Z,3.10
2019-01-21T16:03:20.211Z,3.10
2019-01-21T16:05:32.182Z,3.10
2019-01-21T16:07:22.798Z,3.10
2019-01-21T16:09:16.578Z,3.00
2019-01-21T16:11:02.001Z,3.00
2019-01-21T16:12:48.433Z,2.90
2019-01-21T16:14:11.708Z,2.90
2019-01-21T16:15:54.209Z,2.90
2019-01-21T16:17:41.855Z,2.90
2019-01-21T16:19:25.731Z,2.90
2019-01-21T16:20:59.721Z,2.90
2019-01-21T16:22:56.775Z,2.90
2019-01-21T16:24:26.530Z,2.90
2019-01-21T16:27:33.675Z,2.70
2019-01-21T16:28:57.176Z,2.60
2019-01-21T16:30:10.226Z,2.60
2019-01-21T16:31:35.829Z,2.60
2019-01-21T16:33:29.695Z,2.60
2019-01-21T16:35:15.697Z,2.60
2019-01-21T16:37:13.833Z,2.60
2019-01-21T16:38:50.257Z,2.60
2019-01-21T16:40:36.483Z,2.60
2019-01-21T16:42:19.769Z,2.60
2019-01-21T16:43:39.104Z,2.60
2019-01-21T16:45:06.618Z,2.50
2019-01-21T16:46:19.583Z,2.50
2019-01-21T16:47:30.613Z,2.60
2019-01-21T16:48:44.377Z,2.60
2019-01-21T16:54:26.980Z,2.60
2019-01-21T16:55:38.121Z,2.50
2019-01-21T16:56:49.007Z,2.50
2019-01-21T16:57:54.235Z,2.50
2019-01-21T16:59:01.652Z,2.50
2019-01-21T17:00:09.501Z,2.50
2019-01-21T17:01:20.084Z,2.50
2019-01-21T17:02:25.180Z,2.50
2019-01-21T17:03:31.031Z,2.50
2019-01-21T17:04:40.293Z,2.50
2019-01-21T17:05:49.671Z,2.50
2019-01-21T17:06:58.812Z,2.50
2019-01-21T17:08:07.193Z,2.50
2019-01-21T17:09:13.678Z,2.50
2019-01-21T17:10:26.226Z,2.50
2019-01-21T17:11:34.382Z,2.50
2019-01-21T17:12:40.165Z,2.50
2019-01-21T17:13:48.028Z,2.50
2019-01-21T17:14:57.676Z,2.50
2019-01-21T17:16:07.202Z,2.40
2019-01-21T17:17:15.668Z,2.40
2019-01-21T17:18:25.937Z,2.40
2019-01-21T17:19:30.451Z,2.40
2019-01-21T17:20:38.694Z,2.40
2019-01-21T17:22:00.746Z,2.40
2019-01-21T17:23:23.599Z,2.40
2019-01-21T17:24:29.079Z,2.40
2019-01-21T17:25:45.079Z,2.50
2019-01-21T17:26:57.671Z,2.50
2019-01-21T17:28:05.301Z,2.40
2019-01-21T17:29:11.782Z,2.40
2019-01-21T17:30:30.134Z,2.40
2019-01-21T17:31:39.805Z,2.40
2019-01-21T17:32:45.712Z,2.40
2019-01-21T17:33:51.309Z,2.30
2019-01-21T17:35:23.913Z,2.30
2019-01-21T17:36:32.357Z,2.30
2019-01-21T17:37:56.456Z,2.30
2019-01-21T17:38:54.981Z,2.30
2019-01-21T17:40:23.005Z,2.30
2019-01-21T17:41:30.129Z,2.30
2019-01-21T17:42:36.182Z,2.40
2019-01-21T17:43:42.683Z,2.40
2019-01-21T17:44:51.936Z,2.40
2019-01-21T17:45:57.294Z,2.40
2019-01-21T17:47:27.092Z,2.40
2019-01-21T17:49:03.942Z,2.40
2019-01-21T17:50:24.377Z,2.40
2019-01-21T17:51:57.818Z,2.40
2019-01-21T17:53:08.081Z,2.40
2019-01-21T17:54:13.690Z,2.40
2019-01-21T17:55:32.822Z,2.30
2019-01-21T17:57:19.374Z,2.30
2019-01-21T17:58:35.771Z,2.20
2019-01-21T17:59:56.636Z,2.20
2019-01-21T18:01:02.410Z,2.10
2019-01-21T18:02:08.211Z,2.10
2019-01-21T18:03:26.745Z,2.00
2019-01-21T18:07:20.929Z,2.00
2019-01-21T18:08:28.308Z,2.00
2019-01-21T18:09:39.824Z,2.00
2019-01-21T18:10:48.405Z,2.00
2019-01-21T18:12:02.454Z,1.90
2019-01-21T18:13:09.615Z,1.90
2019-01-21T18:14:17.731Z,1.90
2019-01-21T18:15:24.787Z,1.90
2019-01-21T18:16:31.422Z,1.90
2019-01-21T18:17:40.134Z,4.40
2019-01-21T18:18:45.933Z,1.90
2019-01-21T18:19:51.752Z,1.90
2019-01-21T18:20:57.368Z,1.90
2019-01-21T18:22:13.218Z,1.90
2019-01-21T18:23:19.815Z,1.90
2019-01-21T18:24:27.876Z,1.90
2019-01-21T18:25:39.870Z,1.90
2019-01-21T18:26:55.252Z,1.90
2019-01-21T18:28:00.632Z,1.90
2019-01-21T18:29:07.076Z,1.90
2019-01-21T18:30:19.470Z,1.90
2019-01-21T18:31:25.595Z,1.80
2019-01-21T18:32:33.413Z,1.80
2019-01-21T18:33:39.288Z,1.70
2019-01-21T18:34:47.731Z,1.70
2019-01-21T18:35:53.578Z,1.70
2019-01-21T18:37:04.927Z,1.70
2019-01-21T18:38:14.637Z,1.70
2019-01-21T18:39:20.197Z,1.70
2019-01-21T18:40:30.584Z,1.70
2019-01-21T18:41:47.352Z,1.70
2019-01-21T18:42:56.976Z,1.70
2019-01-21T18:44:07.747Z,1.70
2019-01-21T18:45:17.417Z,1.70
2019-01-21T18:46:23.610Z,1.60
2019-01-21T18:47:29.571Z,1.60
2019-01-21T18:48:47.330Z,1.70
2019-01-21T18:49:58.302Z,1.70
2019-01-21T18:51:06.995Z,1.60
2019-01-21T18:52:16.299Z,1.60
2019-01-21T18:53:24.983Z,1.60
2019-01-21T18:54:42.543Z,1.50
2019-01-21T18:56:01.213Z,1.50
2019-01-21T18:57:07.276Z,1.50
2019-01-21T18:58:16.857Z,1.50
2019-01-21T18:59:27.217Z,1.50
2019-01-21T19:00:34.513Z,1.50
2019-01-21T19:01:41.976Z,1.50
2019-01-21T19:02:48.607Z,1.40
2019-01-21T19:03:57.047Z,1.40